createdAt,value
2018-08-10T00:02:07.277Z,75.10
2018-08-10T00:04:37.864Z,74.26
2018-08-10T00:07:09.389Z,73.17
2018-08-10T00:09:39.225Z,72.74
2018-08-10T00:12:08.829Z,73.97
2018-08-10T00:14:38.359Z,73.32
2018-08-10T00:17:08.003Z,73.94
2018-08-10T00:19:38.287Z,73.31
2018-08-10T00:22:08.089Z,74.14
2018-08-10T00:24:37.604Z,74.44
2018-08-10T00:27:07.214Z,75.16
2018-08-10T00:29:36.740Z,75.79
2018-08-10T00:32:06.395Z,75.60
2018-08-10T00:34:36.723Z,76.68
2018-08-10T00:37:06.549Z,75.91
2018-08-10T00:39:37.202Z,74.87
2018-08-10T00:42:08.090Z,75.36
2018-08-10T00:44:37.708Z,74.27
2018-08-10T00:47:08.291Z,74.15
2018-08-10T00:49:37.862Z,73.48
2018-08-10T00:52:07.720Z,73.30
2018-08-10T00:54:37.413Z,73.67
2018-08-10T00:57:08.108Z,73.35
2018-08-10T00:59:38.202Z,72.73
2018-08-10T01:02:08.143Z,73.92
2018-08-10T01:04:39.468Z,74.22
2018-08-10T01:07:08.923Z,72.62
2018-08-10T01:09:39.213Z,73.02
2018-08-10T01:12:08.814Z,73.38
2018-08-10T01:14:38.410Z,73.34
2018-08-10T01:17:08.058Z,72.86
2018-08-10T01:19:37.910Z,73.60
2018-08-10T01:22:07.468Z,73.35
2018-08-10T01:24:39.436Z,72.41
2018-08-10T01:27:14.794Z,73.16
2018-08-10T01:29:45.088Z,73.15
2018-08-10T01:32:15.035Z,73.35
2018-08-10T01:34:44.616Z,73.34
2018-08-10T01:37:14.221Z,73.40
2018-08-10T01:39:45.764Z,72.29
2018-08-10T01:42:15.733Z,71.79
2018-08-10T01:44:45.581Z,72.56
2018-08-10T01:47:15.048Z,72.36
2018-08-10T01:49:45.405Z,72.21
2018-08-10T01:52:15.921Z,71.60
2018-08-10T01:54:45.611Z,71.37
2018-08-10T01:57:15.264Z,72.05
2018-08-10T01:59:44.912Z,71.69
2018-08-10T02:02:14.644Z,70.56
2018-08-10T02:04:46.154Z,70.16
2018-08-10T02:07:16.813Z,70.81
2018-08-10T02:09:47.035Z,70.93
2018-08-10T02:12:16.505Z,70.90
2018-08-10T02:14:46.067Z,71.02
2018-08-10T02:17:15.685Z,71.21
2018-08-10T02:19:45.829Z,71.46
2018-08-10T02:22:17.336Z,71.16
2018-08-10T02:24:47.744Z,71.12
2018-08-10T02:27:17.316Z,71.67
2018-08-10T02:29:46.796Z,71.82
2018-08-10T02:32:16.361Z,71.96
2018-08-10T02:34:46.116Z,70.77
2018-08-10T02:37:15.746Z,71.39
2018-08-10T02:39:45.997Z,71.80
2018-08-10T02:42:16.383Z,70.88
2018-08-10T02:44:45.913Z,70.95
2018-08-10T02:47:19.536Z,71.01
2018-08-10T02:49:49.138Z,71.56
2018-08-10T02:52:19.546Z,71.90
2018-08-10T02:54:50.321Z,72.32
2018-08-10T02:57:20.143Z,72.69
2018-08-10T02:59:49.601Z,72.64
2018-08-10T03:02:19.095Z,72.26
2018-08-10T03:04:49.160Z,71.69
2018-08-10T03:07:19.649Z,71.83
2018-08-10T03:09:49.175Z,72.19
2018-08-10T03:12:18.710Z,72.04
2018-08-10T03:14:49.186Z,72.23
2018-08-10T03:17:18.700Z,72.72
2018-08-10T03:19:48.260Z,72.22
2018-08-10T03:22:17.842Z,72.27
2018-08-10T03:24:47.637Z,72.71
2018-08-10T03:27:19.023Z,72.88
2018-08-10T03:29:48.548Z,72.60
2018-08-10T03:32:18.490Z,72.82
2018-08-10T03:34:48.250Z,73.11
2018-08-10T03:37:18.474Z,72.68
2018-08-10T03:39:48.348Z,73.57
2018-08-10T03:42:18.690Z,73.32
2018-08-10T03:44:48.913Z,72.96
2018-08-10T03:47:18.445Z,73.07
2018-08-10T03:49:47.976Z,74.23
2018-08-10T03:52:17.428Z,74.01
2018-08-10T03:54:46.974Z,74.19
2018-08-10T03:57:17.126Z,73.87
2018-08-10T03:59:48.787Z,74.01
2018-08-10T04:02:22.510Z,74.40
2018-08-10T04:04:52.280Z,74.28
2018-08-10T04:07:22.437Z,74.40
2018-08-10T04:09:54.956Z,73.76
2018-08-10T04:12:24.451Z,74.25
2018-08-10T04:14:54.081Z,74.14
2018-08-10T04:17:26.854Z,74.15
2018-08-10T04:19:56.844Z,75.14
2018-08-10T04:22:26.790Z,74.83
2018-08-10T04:24:56.341Z,74.57
2018-08-10T04:27:25.892Z,75.53
2018-08-10T04:29:55.409Z,75.88
2018-08-10T04:32:25.313Z,75.38
2018-08-10T04:34:55.584Z,75.51
2018-08-10T04:37:25.121Z,75.76
2018-08-10T04:39:54.729Z,75.96
2018-08-10T04:42:24.323Z,76.62
2018-08-10T04:44:54.304Z,76.47
2018-08-10T04:47:24.499Z,77.15
2018-08-10T04:49:54.828Z,77.16
2018-08-10T04:52:25.393Z,77.05
2018-08-10T04:54:56.035Z,77.05
2018-08-10T04:57:25.584Z,76.98
2018-08-10T04:59:55.389Z,75.89
2018-08-10T05:02:28.528Z,75.68
2018-08-10T05:04:59.301Z,75.34
2018-08-10T05:07:29.629Z,74.53
2018-08-10T05:09:59.450Z,74.89
2018-08-10T05:12:29.389Z,73.75
2018-08-10T05:15:00.174Z,73.79
2018-08-10T05:17:30.417Z,73.79
2018-08-10T05:20:00.260Z,73.24
2018-08-10T05:22:30.495Z,73.30
2018-08-10T05:25:00.458Z,73.23
2018-08-10T05:27:31.458Z,72.40
2018-08-10T05:30:02.558Z,72.11
2018-08-10T05:32:33.014Z,72.27
2018-08-10T05:35:02.555Z,71.93
2018-08-10T05:37:32.090Z,73.03
2018-08-10T05:40:07.213Z,72.70
2018-08-10T05:42:37.477Z,72.95
2018-08-10T05:45:07.455Z,72.84
2018-08-10T05:47:37.903Z,73.35
2018-08-10T05:50:07.846Z,73.12
2018-08-10T05:52:37.466Z,73.99
2018-08-10T05:55:07.480Z,73.67
2018-08-10T05:57:37.328Z,73.63
2018-08-10T06:00:08.212Z,73.64
2018-08-10T06:02:38.964Z,74.46
2018-08-10T06:05:08.551Z,74.50
2018-08-10T06:07:38.407Z,74.46
2018-08-10T06:10:09.694Z,73.70
2018-08-10T06:12:39.762Z,73.75
2018-08-10T06:15:13.861Z,73.47
2018-08-10T06:17:43.697Z,73.42
2018-08-10T06:20:14.365Z,73.19
2018-08-10T06:22:45.335Z,73.47
2018-08-10T06:25:15.713Z,73.32
2018-08-10T06:27:45.247Z,73.97
2018-08-10T06:30:15.280Z,73.98
2018-08-10T06:32:45.463Z,74.17
2018-08-10T06:35:15.304Z,73.45
2018-08-10T06:37:44.750Z,73.89
2018-08-10T06:40:15.200Z,74.27
2018-08-10T06:42:44.852Z,73.87
2018-08-10T06:45:14.481Z,74.35
2018-08-10T06:47:43.937Z,74.01
2018-08-10T06:50:13.393Z,73.01
2018-08-10T06:52:42.892Z,72.74
2018-08-10T06:55:12.464Z,71.86
2018-08-10T06:57:42.527Z,72.35
2018-08-10T07:00:12.078Z,71.33
2018-08-10T07:02:43.185Z,71.42
2018-08-10T07:05:12.727Z,71.85
2018-08-10T07:07:43.044Z,70.70
2018-08-10T07:10:12.641Z,71.28
2018-08-10T07:12:42.092Z,70.58
2018-08-10T07:15:11.740Z,70.15
2018-08-10T07:17:41.277Z,70.11
2018-08-10T07:20:11.902Z,69.66
2018-08-10T07:22:42.540Z,70.30
2018-08-10T07:25:13.344Z,68.70
2018-08-10T07:27:43.245Z,69.24
2018-08-10T07:30:12.931Z,67.77
2018-08-10T07:32:42.604Z,67.69
2018-08-10T07:35:12.226Z,68.03
2018-08-10T07:37:41.996Z,67.53
2018-08-10T07:40:11.693Z,66.94
2018-08-10T07:42:41.149Z,66.77
2018-08-10T07:45:10.560Z,65.57
2018-08-10T07:47:40.233Z,65.57
2018-08-10T07:50:10.375Z,65.35
2018-08-10T07:52:40.039Z,65.18
2018-08-10T07:55:09.500Z,64.88
2018-08-10T07:57:39.045Z,65.27
2018-08-10T08:00:09.158Z,65.09
2018-08-10T08:02:39.258Z,65.58
2018-08-10T08:05:09.162Z,64.41
2018-08-10T08:07:38.666Z,64.86
2018-08-10T08:10:08.518Z,63.89
2018-08-10T08:12:38.449Z,64.67
2018-08-10T08:15:08.020Z,64.11
2018-08-10T08:17:37.705Z,62.87
2018-08-10T08:20:08.240Z,63.27
2018-08-10T08:22:37.757Z,62.14
2018-08-10T08:25:07.343Z,62.55
2018-08-10T08:27:36.970Z,61.48
2018-08-10T08:30:09.441Z,60.88
2018-08-10T08:32:39.613Z,60.76
2018-08-10T08:35:09.305Z,60.66
2018-08-10T08:37:39.395Z,60.54
2018-08-10T08:40:18.488Z,59.87
2018-08-10T08:42:49.132Z,59.71
2018-08-10T08:46:22.571Z,59.75
2018-08-10T08:48:54.081Z,59.28
2018-08-10T08:51:25.849Z,58.13
2018-08-10T08:54:12.580Z,56.90
2018-08-10T08:56:44.568Z,57.93
2018-08-10T08:59:15.513Z,56.93
2018-08-10T09:01:46.969Z,56.90
2018-08-10T09:05:27.197Z,56.36
2018-08-10T09:07:56.833Z,57.27
2018-08-10T09:10:27.724Z,55.15
2018-08-10T09:12:58.055Z,53.97
2018-08-10T09:15:27.635Z,55.61
2018-08-10T09:17:58.126Z,56.46
2018-08-10T09:20:27.758Z,57.61
2018-08-10T09:22:58.273Z,57.51
2018-08-10T09:25:28.464Z,57.65
2018-08-10T09:27:58.056Z,57.47
2018-08-10T09:30:27.995Z,56.97
2018-08-10T09:32:57.482Z,57.14
2018-08-10T09:35:27.389Z,55.17
2018-08-10T09:37:57.101Z,55.38
2018-08-10T09:40:26.665Z,55.91
2018-08-10T09:42:56.266Z,55.46
2018-08-10T09:45:26.067Z,55.98
2018-08-10T09:47:55.739Z,54.38
2018-08-10T09:50:25.371Z,53.85
2018-08-10T09:53:00.561Z,53.43
2018-08-10T09:55:35.499Z,54.53
2018-08-10T09:58:08.594Z,53.22
2018-08-10T10:00:43.707Z,52.42
2018-08-10T10:03:17.352Z,52.04
2018-08-10T10:05:48.219Z,51.92
2018-08-10T10:08:18.277Z,52.56
2018-08-10T10:10:47.802Z,50.80
2018-08-10T10:13:17.584Z,50.66
2018-08-10T10:15:47.249Z,50.85
2018-08-10T10:18:17.778Z,49.09
2018-08-10T10:20:48.371Z,49.51
2018-08-10T10:23:17.803Z,50.42
2018-08-10T10:25:47.520Z,50.17
2018-08-10T10:28:17.655Z,50.19
2018-08-10T10:30:47.192Z,48.48
2018-08-10T10:33:16.859Z,48.05
2018-08-10T10:35:46.496Z,48.52
2018-08-10T10:38:16.096Z,49.75
2018-08-10T10:40:45.607Z,49.77
2018-08-10T10:43:15.060Z,49.54
2018-08-10T10:45:45.328Z,49.81
2018-08-10T10:48:14.842Z,50.23
2018-08-10T10:50:47.398Z,49.65
2018-08-10T10:53:16.824Z,49.15
2018-08-10T10:55:46.337Z,45.25
2018-08-10T10:58:16.047Z,45.41
2018-08-10T11:00:45.585Z,45.00
2018-08-10T11:03:15.118Z,45.11
2018-08-10T11:05:44.706Z,46.39
2018-08-10T11:08:14.350Z,44.55
2018-08-10T11:10:44.046Z,46.18
2018-08-10T11:13:13.712Z,46.37
2018-08-10T11:15:43.217Z,47.64
2018-08-10T11:18:12.997Z,46.77
2018-08-10T11:20:42.559Z,45.27
2018-08-10T11:23:12.081Z,46.09
2018-08-10T11:25:42.220Z,47.11
2018-08-10T11:28:11.895Z,47.28
2018-08-10T11:30:41.406Z,46.77
2018-08-10T11:33:11.016Z,47.14
2018-08-10T11:35:40.605Z,47.39
2018-08-10T11:38:10.184Z,47.43
2018-08-10T11:40:39.765Z,46.58
2018-08-10T11:43:09.209Z,45.67
2018-08-10T11:45:38.786Z,46.37
2018-08-10T11:48:08.398Z,45.32
2018-08-10T11:50:37.884Z,44.78
2018-08-10T11:53:07.530Z,45.67
2018-08-10T11:55:37.721Z,45.26
2018-08-10T11:58:07.819Z,44.98
2018-08-10T12:00:37.318Z,44.44
2018-08-10T12:03:07.047Z,45.33
2018-08-10T12:05:36.542Z,44.71
2018-08-10T12:08:06.481Z,44.94
2018-08-10T12:10:36.236Z,43.31
2018-08-10T12:13:05.839Z,42.92
2018-08-10T12:15:35.342Z,42.42
2018-08-10T12:18:04.894Z,42.70
2018-08-10T12:20:34.382Z,43.63
2018-08-10T12:23:03.937Z,44.20
2018-08-10T12:25:33.626Z,43.11
2018-08-10T12:28:03.248Z,43.07
2018-08-10T12:30:32.849Z,42.86
2018-08-10T12:33:02.414Z,41.76
2018-08-10T12:35:31.933Z,39.68
2018-08-10T12:38:01.525Z,35.92
2018-08-10T12:40:31.088Z,33.61
2018-08-10T12:43:00.657Z,33.27
2018-08-10T12:45:30.171Z,33.83
2018-08-10T12:47:59.847Z,36.77
2018-08-10T12:50:29.520Z,39.13
2018-08-10T12:52:59.128Z,40.18
2018-08-10T12:55:28.878Z,40.53
2018-08-10T12:57:58.511Z,36.76
2018-08-10T13:00:28.062Z,36.63
2018-08-10T13:02:57.962Z,33.35
2018-08-10T13:05:27.529Z,35.97
2018-08-10T13:07:57.104Z,34.70
2018-08-10T13:10:26.577Z,31.54
2018-08-10T13:12:56.010Z,28.21
2018-08-10T13:15:25.496Z,28.37
2018-08-10T13:17:55.137Z,29.89
2018-08-10T13:20:24.733Z,30.51
2018-08-10T13:22:55.592Z,31.25
2018-08-10T13:25:25.138Z,32.01
2018-08-10T13:27:54.742Z,31.37
2018-08-10T13:30:24.363Z,34.01
2018-08-10T13:32:53.900Z,31.37
2018-08-10T13:35:23.475Z,31.60
2018-08-10T13:37:53.096Z,32.74
2018-08-10T13:40:22.790Z,32.76
2018-08-10T13:42:52.441Z,33.15
2018-08-10T13:45:22.036Z,32.92
2018-08-10T13:47:51.551Z,32.13
2018-08-10T13:50:21.113Z,31.13
2018-08-10T13:52:50.862Z,29.86
2018-08-10T13:55:20.817Z,28.55
2018-08-10T13:57:50.452Z,27.35
2018-08-10T14:00:20.360Z,26.08
2018-08-10T14:02:52.301Z,26.60
2018-08-10T14:05:22.553Z,26.00
2018-08-10T14:07:52.824Z,24.68
2018-08-10T14:10:22.672Z,27.95
2018-08-10T14:12:52.224Z,29.11
2018-08-10T14:15:21.860Z,29.27
2018-08-10T14:17:51.411Z,31.81
2018-08-10T14:20:21.009Z,34.29
2018-08-10T14:22:50.532Z,35.19
2018-08-10T14:25:20.069Z,37.25
2018-08-10T14:27:49.777Z,38.34
2018-08-10T14:30:19.282Z,38.81
2018-08-10T14:32:49.027Z,39.98
2018-08-10T14:35:18.608Z,40.20
2018-08-10T14:37:48.246Z,40.69
2018-08-10T14:40:17.833Z,39.98
2018-08-10T14:42:47.520Z,40.52
2018-08-10T14:45:17.477Z,40.35
2018-08-10T14:47:46.937Z,40.76
2018-08-10T14:50:16.397Z,40.25
2018-08-10T14:52:46.593Z,39.94
2018-08-10T14:55:16.813Z,38.58
2018-08-10T14:57:46.436Z,37.64
2018-08-10T15:00:20.613Z,35.90
2018-08-10T15:02:50.530Z,36.72
2018-08-10T15:05:20.043Z,37.77
2018-08-10T15:07:49.544Z,37.88
2018-08-10T15:10:19.105Z,38.61
2018-08-10T15:12:48.835Z,38.72
2018-08-10T15:15:19.617Z,38.76
2018-08-10T15:17:49.350Z,39.92
2018-08-10T15:20:21.309Z,39.55
2018-08-10T15:22:50.953Z,39.51
2018-08-10T15:25:20.512Z,45.56
2018-08-10T15:27:50.205Z,46.91
2018-08-10T15:30:20.262Z,49.18
2018-08-10T15:32:49.840Z,48.91
2018-08-10T15:35:19.446Z,50.95
2018-08-10T15:37:49.088Z,52.04
2018-08-10T15:40:19.798Z,52.54
2018-08-10T15:42:49.449Z,52.99
2018-08-10T15:45:19.784Z,53.81
2018-08-10T15:47:49.257Z,53.16
2018-08-10T15:50:18.861Z,52.04
2018-08-10T15:52:48.343Z,50.43
2018-08-10T15:55:17.996Z,49.92
2018-08-10T15:57:47.661Z,50.79
2018-08-10T16:00:22.449Z,50.58
2018-08-10T16:02:52.130Z,48.91
2018-08-10T16:05:21.960Z,48.86
2018-08-10T16:07:51.545Z,50.15
2018-08-10T16:10:21.277Z,48.98
2018-08-10T16:12:50.772Z,47.89
2018-08-10T16:15:20.253Z,50.20
2018-08-10T16:17:50.008Z,50.86
2018-08-10T16:20:21.862Z,50.24
2018-08-10T16:22:52.005Z,50.61
2018-08-10T16:25:21.564Z,53.21
2018-08-10T16:27:51.147Z,53.54
2018-08-10T16:30:20.733Z,50.93
2018-08-10T16:32:50.246Z,49.63
2018-08-10T16:35:20.001Z,50.22
2018-08-10T16:37:49.446Z,49.52
2018-08-10T16:40:19.969Z,48.93
2018-08-10T16:42:49.531Z,48.62
2018-08-10T16:45:19.224Z,49.28
2018-08-10T16:47:48.856Z,50.36
2018-08-10T16:50:19.433Z,49.21
2018-08-10T16:52:48.973Z,48.88
2018-08-10T16:55:19.848Z,49.94
2018-08-10T16:57:50.145Z,49.15
2018-08-10T17:00:21.599Z,48.80
2018-08-10T17:02:51.322Z,49.71
2018-08-10T17:05:20.985Z,49.33
2018-08-10T17:07:50.549Z,47.04
2018-08-10T17:10:20.113Z,44.78
2018-08-10T17:12:49.780Z,44.43
2018-08-10T17:15:20.441Z,45.38
2018-08-10T17:17:50.020Z,44.61
2018-08-10T17:20:19.737Z,43.99
2018-08-10T17:22:49.344Z,40.71
2018-08-10T17:25:20.799Z,41.08
2018-08-10T17:27:50.376Z,42.34
2018-08-10T17:30:20.671Z,42.26
2018-08-10T17:32:50.251Z,43.10
2018-08-10T17:35:19.902Z,43.86
2018-08-10T17:37:49.481Z,43.50
2018-08-10T17:40:19.131Z,44.91
2018-08-10T17:42:48.680Z,45.41
2018-08-10T17:45:18.791Z,45.40
2018-08-10T17:47:48.287Z,45.86
2018-08-10T17:50:20.169Z,45.37
2018-08-10T17:52:52.338Z,45.99
2018-08-10T17:55:22.478Z,45.98
2018-08-10T17:57:52.229Z,47.63
2018-08-10T18:00:25.653Z,47.14
2018-08-10T18:02:55.324Z,47.35
2018-08-10T18:05:24.931Z,47.03
2018-08-10T18:07:54.535Z,48.35
2018-08-10T18:10:24.159Z,47.20
2018-08-10T18:12:53.820Z,47.10
2018-08-10T18:15:23.402Z,47.81
2018-08-10T18:17:53.049Z,47.75
2018-08-10T18:20:23.224Z,48.63
2018-08-10T18:22:53.271Z,48.85
2018-08-10T18:25:23.642Z,49.13
2018-08-10T18:27:53.904Z,49.43
2018-08-10T18:30:25.293Z,50.12
2018-08-10T18:32:54.852Z,50.27
2018-08-10T18:35:26.702Z,50.53
2018-08-10T18:37:58.592Z,50.14
2018-08-10T18:40:28.253Z,50.96
2018-08-10T18:42:57.790Z,51.39
2018-08-10T18:45:27.376Z,53.61
2018-08-10T18:47:57.018Z,53.83
2018-08-10T18:50:26.576Z,54.72
2018-08-10T18:52:56.111Z,54.84
2018-08-10T18:55:25.656Z,54.50
2018-08-10T18:57:55.269Z,57.13
2018-08-10T19:00:27.486Z,59.14
2018-08-10T19:02:57.005Z,60.02
2018-08-10T19:05:26.560Z,59.94
2018-08-10T19:07:56.141Z,59.49
2018-08-10T19:10:27.836Z,59.83
2018-08-10T19:12:57.489Z,60.78
2018-08-10T19:15:27.137Z,61.80
2018-08-10T19:17:56.647Z,63.35
2018-08-10T19:20:26.188Z,63.75
2018-08-10T19:22:55.791Z,64.28
2018-08-10T19:25:25.334Z,64.15
2018-08-10T19:27:54.852Z,63.57
2018-08-10T19:30:25.233Z,64.51
2018-08-10T19:32:54.848Z,65.28
2018-08-10T19:35:24.327Z,64.94
2018-08-10T19:37:53.915Z,65.81
2018-08-10T19:40:23.636Z,66.10
2018-08-10T19:42:53.470Z,66.13
2018-08-10T19:45:23.144Z,67.55
2018-08-10T19:47:52.901Z,67.03
2018-08-10T19:50:23.383Z,67.38
2018-08-10T19:52:53.728Z,67.84
2018-08-10T19:55:23.311Z,67.70
2018-08-10T19:57:52.804Z,67.04
2018-08-10T20:00:22.379Z,66.82
2018-08-10T20:02:52.314Z,67.60
2018-08-10T20:05:21.892Z,66.59
2018-08-10T20:07:51.440Z,68.55
2018-08-10T20:10:21.117Z,68.91
2018-08-10T20:12:50.704Z,68.70
2018-08-10T20:15:20.426Z,70.18
2018-08-10T20:17:50.033Z,71.12
2018-08-10T20:20:19.924Z,72.03
2018-08-10T20:22:49.609Z,71.54
2018-08-10T20:25:19.186Z,72.11
2018-08-10T20:27:48.836Z,72.01
2018-08-10T20:30:19.316Z,72.17
2018-08-10T20:32:49.437Z,71.87
2018-08-10T20:35:21.134Z,70.89
2018-08-10T20:37:50.875Z,70.42
2018-08-10T20:40:21.108Z,70.22
2018-08-10T20:42:50.882Z,70.86
2018-08-10T20:45:21.448Z,71.72
2018-08-10T20:47:50.935Z,73.69
2018-08-10T20:50:21.894Z,74.58
2018-08-10T20:52:51.856Z,76.40
2018-08-10T20:55:21.747Z,75.74
2018-08-10T20:57:51.492Z,76.05
2018-08-10T21:00:21.025Z,75.36
2018-08-10T21:02:50.550Z,75.16
2018-08-10T21:05:20.111Z,74.88
2018-08-10T21:07:49.742Z,75.11
2018-08-10T21:10:19.291Z,74.92
2018-08-10T21:12:48.965Z,74.28
2018-08-10T21:15:18.567Z,74.63
2018-08-10T21:17:48.066Z,75.99
2018-08-10T21:20:18.395Z,75.62
2018-08-10T21:22:47.899Z,76.74
2018-08-10T21:25:17.474Z,76.30
2018-08-10T21:27:47.116Z,76.50
2018-08-10T21:30:19.363Z,77.21
2018-08-10T21:32:49.363Z,77.49
2018-08-10T21:35:18.936Z,77.95
2018-08-10T21:37:48.636Z,78.66
2018-08-10T21:40:18.172Z,78.37
2018-08-10T21:42:47.682Z,78.47
2018-08-10T21:45:17.276Z,77.83
2018-08-10T21:47:46.873Z,76.75
2018-08-10T21:50:16.471Z,76.34
2018-08-10T21:52:46.373Z,78.28
2018-08-10T21:55:15.912Z,77.55
2018-08-10T21:57:45.336Z,79.00
2018-08-10T22:00:32.700Z,79.77
2018-08-10T22:03:02.261Z,79.45
2018-08-10T22:05:31.951Z,78.87
2018-08-10T22:08:03.416Z,79.46
2018-08-10T22:10:32.933Z,80.13
2018-08-10T22:13:02.477Z,81.61
2018-08-10T22:15:37.262Z,82.45
2018-08-10T22:18:11.932Z,82.07
2018-08-10T22:20:41.430Z,82.23
2018-08-10T22:23:10.855Z,81.53
2018-08-10T22:25:40.315Z,82.42
2018-08-10T22:28:09.875Z,83.09
2018-08-10T22:30:39.461Z,82.35
2018-08-10T22:33:09.184Z,82.88
2018-08-10T22:35:38.722Z,82.74
2018-08-10T22:38:08.298Z,82.37
2018-08-10T22:40:37.772Z,83.02
2018-08-10T22:43:07.916Z,83.06
2018-08-10T22:45:37.463Z,82.89
2018-08-10T22:48:07.039Z,82.87
2018-08-10T22:50:36.601Z,82.81
2018-08-10T22:53:06.192Z,83.28
2018-08-10T22:55:36.259Z,83.11
2018-08-10T22:58:05.821Z,82.61
2018-08-10T23:00:35.433Z,82.10
2018-08-10T23:03:05.128Z,83.99
2018-08-10T23:05:34.631Z,83.50
2018-08-10T23:08:04.161Z,82.83
2018-08-10T23:10:33.631Z,83.05
2018-08-10T23:13:03.288Z,82.78
2018-08-10T23:15:32.925Z,82.13
2018-08-10T23:18:02.462Z,83.00
2018-08-10T23:20:32.080Z,83.22
2018-08-10T23:23:01.615Z,83.74
2018-08-10T23:25:31.301Z,83.61
2018-08-10T23:28:00.872Z,83.52
2018-08-10T23:30:30.421Z,83.79
2018-08-10T23:33:00.053Z,83.87
2018-08-10T23:35:29.572Z,83.38
2018-08-10T23:37:59.112Z,84.10
2018-08-10T23:40:28.927Z,83.81
2018-08-10T23:42:58.458Z,84.76
2018-08-10T23:45:27.903Z,83.84
2018-08-10T23:47:57.526Z,83.67
2018-08-10T23:50:27.069Z,83.33
2018-08-10T23:52:56.563Z,83.23
2018-08-10T23:55:26.592Z,83.63
2018-08-10T23:57:56.092Z,83.08
